»·PEaware :: N2298W KRIV-KTOA

N2298W :: KRIV-KTOA

FLIGHT INFORMATION

Flight Status: Arrived
Operator: Privately registered:
United States
More flights under this callsign
Pilot: Louis G. (16930)
Aircraft: CESSNA 172 SKYHAWK
(C172)
More flights by this aircraft type
Origin: KRIV March ARB
United States
Destination: KTOA Zamperini
United States
More flights between these airports :: More routes between these airports
Route: KCNO SLI
File this flight plan on PilotEdge
Remarks: VFR ADVISORIES
Altitude:
(Current/Filed)
4,500ft
Speed:
(Current/Filed)
110kts
Departed: 23-Nov-17 12:39 PM
Arrived: 23-Nov-17 01:28 PM
Distance/Time
Traveled:
54nm/0:49
Distance/Time
To Go:
Arrived

Flight Plot

Page will automatically refresh every two minutes.

Flight plan parsing failed; only flown route is shown


Map Options




Map Legend


Flown Route
Filed Route
Departure Airport
Arrival Airport
Navaid (VOR, NDB)
Fix

Horizontal Profiles

Position Reports

Time Latitude Longitude Heading Altitude Ground
Speed
23-Nov-17 12:43 33.884507 -117.252647 210 1503ft 0kts
23-Nov-17 12:44 33.885913 -117.255461 315 1508ft 60kts
23-Nov-17 12:45 33.901141 -117.266716 346 2300ft 74kts
23-Nov-17 12:46 33.906498 -117.286475 272 3142ft 77kts
23-Nov-17 12:47 33.906615 -117.310202 276 4037ft 75kts
23-Nov-17 12:48 33.907398 -117.336781 277 4454ft 110kts
23-Nov-17 12:49 33.910941 -117.369842 280 4348ft 115kts
23-Nov-17 12:50 33.915446 -117.401792 284 4427ft 107kts
23-Nov-17 12:51 33.922930 -117.431700 290 4452ft 107kts
23-Nov-17 12:52 33.930761 -117.461076 288 4474ft 107kts
23-Nov-17 12:53 33.937757 -117.491565 284 4496ft 107kts
23-Nov-17 12:54 33.944632 -117.520616 288 4519ft 107kts
23-Nov-17 12:55 33.951602 -117.547515 288 4540ft 107kts
23-Nov-17 12:56 33.956858 -117.568647 291 4354ft 63kts
23-Nov-17 12:57 33.967226 -117.579783 291 3472ft 66kts
23-Nov-17 12:58 33.969659 -117.595183 317 2525ft 66kts
23-Nov-17 12:59 33.977156 -117.609769 255 1615ft 70kts
23-Nov-17 13:00 33.975740 -117.629100 271 864ft 66kts
23-Nov-17 13:01 33.975763 -117.645964 270 804ft 69kts
23-Nov-17 13:02 33.970161 -117.663266 234 1679ft 71kts
23-Nov-17 13:03 33.960878 -117.680351 242 2538ft 72kts
23-Nov-17 13:04 33.952980 -117.698081 245 3376ft 71kts
23-Nov-17 13:05 33.946099 -117.713750 245 4133ft 67kts
23-Nov-17 13:06 33.939597 -117.728394 246 4474ft 97kts
23-Nov-17 13:07 33.929676 -117.751578 246 4466ft 121kts
23-Nov-17 13:08 33.918069 -117.778847 246 4436ft 128kts
23-Nov-17 13:09 33.906276 -117.806756 246 4435ft 131kts
23-Nov-17 13:10 33.894565 -117.834455 246 4435ft 129kts
23-Nov-17 13:11 33.883371 -117.859696 244 4432ft 124kts
23-Nov-17 13:12 33.871883 -117.884387 244 4435ft 116kts
23-Nov-17 13:13 33.861023 -117.906132 241 4435ft 114kts
23-Nov-17 13:14 33.849657 -117.927890 241 4438ft 115kts
23-Nov-17 13:15 33.837891 -117.950375 241 4437ft 116kts
23-Nov-17 13:16 33.825921 -117.972607 241 4435ft 111kts
23-Nov-17 13:17 33.814080 -117.994844 241 4435ft 109kts
23-Nov-17 13:18 33.802777 -118.016607 241 4416ft 107kts
23-Nov-17 13:19 33.791731 -118.038594 241 4416ft 105kts
23-Nov-17 13:20 33.788607 -118.062703 263 4424ft 104kts
23-Nov-17 13:21 33.788441 -118.084264 271 4425ft 105kts
23-Nov-17 13:22 33.789381 -118.100544 271 4425ft 105kts
23-Nov-17 13:23 33.790615 -118.122344 271 4305ft 111kts
23-Nov-17 13:24 33.792021 -118.147675 271 3910ft 115kts
23-Nov-17 13:25 33.791341 -118.172074 261 3491ft 104kts
23-Nov-17 13:26 33.789166 -118.196791 261 3052ft 102kts
23-Nov-17 13:27 33.787096 -118.221312 261 2616ft 102kts
23-Nov-17 13:28 33.785073 -118.246021 261 2178ft 102kts
23-Nov-17 13:29 33.782878 -118.271720 257 1723ft 100kts
23-Nov-17 13:30 33.780083 -118.297059 268 1216ft 88kts
23-Nov-17 13:31 33.785825 -118.314799 304 795ft 67kts
23-Nov-17 13:32 33.794741 -118.328212 307 434ft 63kts
23-Nov-17 13:33 33.802478 -118.339873 311 96ft 20kts
23-Nov-17 13:34 33.802745 -118.342416 188 97ft 6kts
23-Nov-17 13:35 33.802474 -118.342201 131 99ft 0kts
23-Nov-17 13:36 33.802474 -118.342201 131 99ft 0kts
23-Nov-17 13:37 33.802474 -118.342201 131 99ft 0kts
23-Nov-17 13:38 33.802474 -118.342201 131 99ft 0kts
23-Nov-17 13:39 33.802474 -118.342201 131 99ft 0kts
23-Nov-17 13:40 33.802474 -118.342201 131 99ft 0kts
23-Nov-17 13:41 33.802474 -118.342201 131 99ft 0kts
23-Nov-17 13:42 33.802474 -118.342201 131 99ft 0kts
23-Nov-17 13:43 33.802474 -118.342201 131 99ft 0kts
23-Nov-17 13:44 33.802474 -118.342201 131 99ft 0kts
23-Nov-17 13:45 33.802474 -118.342201 131 99ft 0kts
23-Nov-17 13:46 33.802474 -118.342201 131 99ft 0kts
23-Nov-17 13:47 33.802474 -118.342201 131 99ft 0kts
23-Nov-17 13:48 33.802474 -118.342201 131 99ft 0kts

Navigation Log

Ident Type
Flight plan parsing failed, navigation log unavailable